sensor_id;sensor_type;location;lat;lon;timestamp;pressure;altitude;pressure_sealevel;temperature;humidity
61571;BME280;47463;49.884;10.010;2023-04-24T00:00:01;100740;;;10.1;85
61571;BME280;47463;49.884;10.010;2023-04-24T00:05:01;100740;;;10;85
61571;BME280;47463;49.884;10.010;2023-04-24T00:10:01;100740;;;10;85
61571;BME280;47463;49.884;10.010;2023-04-24T00:15:01;100730;;;10;84
61571;BME280;47463;49.884;10.010;2023-04-24T00:20:01;100730;;;10.1;84
61571;BME280;47463;49.884;10.010;2023-04-24T00:25:01;100730;;;10;84
61571;BME280;47463;49.884;10.010;2023-04-24T00:30:01;100720;;;10;84
61571;BME280;47463;49.884;10.010;2023-04-24T00:35:01;100730;;;10;84
61571;BME280;47463;49.884;10.010;2023-04-24T00:40:01;100730;;;10;84
61571;BME280;47463;49.884;10.010;2023-04-24T00:45:01;100720;;;10;84
61571;BME280;47463;49.884;10.010;2023-04-24T00:50:01;100720;;;9.8;84
61571;BME280;47463;49.884;10.010;2023-04-24T00:55:01;100710;;;9.9;84
61571;BME280;47463;49.884;10.010;2023-04-24T01:00:01;100720;;;9.9;84
61571;BME280;47463;49.884;10.010;2023-04-24T01:05:01;100730;;;9.8;84
61571;BME280;47463;49.884;10.010;2023-04-24T01:10:01;100730;;;9.8;84
61571;BME280;47463;49.884;10.010;2023-04-24T01:15:01;100720;;;9.8;84
61571;BME280;47463;49.884;10.010;2023-04-24T01:20:01;100710;;;9.8;84
61571;BME280;47463;49.884;10.010;2023-04-24T01:25:01;100720;;;9.7;84
61571;BME280;47463;49.884;10.010;2023-04-24T01:30:01;100720;;;9.8;84
61571;BME280;47463;49.884;10.010;2023-04-24T01:35:01;100710;;;9.8;83
61571;BME280;47463;49.884;10.010;2023-04-24T01:40:01;100710;;;9.8;83
61571;BME280;47463;49.884;10.010;2023-04-24T01:45:01;100710;;;9.8;83
61571;BME280;47463;49.884;10.010;2023-04-24T01:50:01;100710;;;9.9;83
61571;BME280;47463;49.884;10.010;2023-04-24T01:55:01;100710;;;10;82
61571;BME280;47463;49.884;10.010;2023-04-24T02:00:01;100710;;;10;82
61571;BME280;47463;49.884;10.010;2023-04-24T02:05:01;100700;;;10;83
61571;BME280;47463;49.884;10.010;2023-04-24T02:10:01;100690;;;10;82
61571;BME280;47463;49.884;10.010;2023-04-24T02:15:01;100690;;;9.9;83
61571;BME280;47463;49.884;10.010;2023-04-24T02:20:01;100700;;;9.8;83
61571;BME280;47463;49.884;10.010;2023-04-24T02:25:01;100690;;;9.9;83
61571;BME280;47463;49.884;10.010;2023-04-24T02:30:01;100670;;;9.9;83
61571;BME280;47463;49.884;10.010;2023-04-24T02:35:01;100680;;;9.9;83
61571;BME280;47463;49.884;10.010;2023-04-24T02:40:01;100680;;;9.8;83
61571;BME280;47463;49.884;10.010;2023-04-24T02:45:01;100670;;;9.8;83
61571;BME280;47463;49.884;10.010;2023-04-24T02:50:01;100670;;;9.8;83
61571;BME280;47463;49.884;10.010;2023-04-24T02:55:01;100670;;;9.7;83
61571;BME280;47463;49.884;10.010;2023-04-24T03:00:01;100670;;;9.7;83
61571;BME280;47463;49.884;10.010;2023-04-24T03:05:01;100680;;;9.7;83
61571;BME280;47463;49.884;10.010;2023-04-24T03:10:01;100680;;;9.7;83
61571;BME280;47463;49.884;10.010;2023-04-24T03:15:01;100680;;;9.8;83
61571;BME280;47463;49.884;10.010;2023-04-24T03:20:01;100680;;;9.8;83
61571;BME280;47463;49.884;10.010;2023-04-24T03:25:01;100670;;;9.8;82
61571;BME280;47463;49.884;10.010;2023-04-24T03:30:01;100660;;;9.8;82
61571;BME280;47463;49.884;10.010;2023-04-24T03:35:01;100660;;;9.7;83
61571;BME280;47463;49.884;10.010;2023-04-24T03:40:01;100660;;;9.5;83
61571;BME280;47463;49.884;10.010;2023-04-24T03:45:01;100660;;;9.3;84
61571;BME280;47463;49.884;10.010;2023-04-24T03:50:01;100650;;;9.3;84
61571;BME280;47463;49.884;10.010;2023-04-24T03:55:01;100650;;;9.4;84
61571;BME280;47463;49.884;10.010;2023-04-24T04:00:01;100650;;;9.4;84
61571;BME280;47463;49.884;10.010;2023-04-24T04:05:01;100640;;;9.4;84
61571;BME280;47463;49.884;10.010;2023-04-24T04:10:01;100650;;;9.4;84
61571;BME280;47463;49.884;10.010;2023-04-24T04:15:01;100650;;;9.3;84
61571;BME280;47463;49.884;10.010;2023-04-24T04:20:01;100650;;;9.3;84
61571;BME280;47463;49.884;10.010;2023-04-24T04:25:01;100660;;;9.4;84
61571;BME280;47463;49.884;10.010;2023-04-24T04:30:01;100670;;;9.5;84
61571;BME280;47463;49.884;10.010;2023-04-24T04:35:01;100660;;;9.6;84
61571;BME280;47463;49.884;10.010;2023-04-24T04:40:01;100680;;;9.6;83
61571;BME280;47463;49.884;10.010;2023-04-24T04:45:01;100680;;;9.8;83
61571;BME280;47463;49.884;10.010;2023-04-24T04:50:01;100680;;;9.7;83
61571;BME280;47463;49.884;10.010;2023-04-24T04:55:01;100690;;;9.7;83
61571;BME280;47463;49.884;10.010;2023-04-24T05:00:01;100710;;;9.7;84
61571;BME280;47463;49.884;10.010;2023-04-24T05:05:01;100730;;;9.5;84
61571;BME280;47463;49.884;10.010;2023-04-24T05:10:01;100730;;;9.4;83
61571;BME280;47463;49.884;10.010;2023-04-24T05:15:01;100730;;;9.4;82
61571;BME280;47463;49.884;10.010;2023-04-24T05:20:01;100730;;;9.3;82
61571;BME280;47463;49.884;10.010;2023-04-24T05:25:01;100730;;;9.2;83
61571;BME280;47463;49.884;10.010;2023-04-24T05:30:01;100730;;;9.2;82
61571;BME280;47463;49.884;10.010;2023-04-24T05:35:01;100730;;;9.1;83
61571;BME280;47463;49.884;10.010;2023-04-24T05:40:01;100740;;;9;84
61571;BME280;47463;49.884;10.010;2023-04-24T05:45:01;100750;;;9;84
61571;BME280;47463;49.884;10.010;2023-04-24T05:50:01;100750;;;8.9;84
61571;BME280;47463;49.884;10.010;2023-04-24T05:55:01;100760;;;9.1;84
61571;BME280;47463;49.884;10.010;2023-04-24T06:00:01;100770;;;9.3;83
61571;BME280;47463;49.884;10.010;2023-04-24T06:05:01;100770;;;9.3;82
61571;BME280;47463;49.884;10.010;2023-04-24T06:10:01;100770;;;9.2;82
61571;BME280;47463;49.884;10.010;2023-04-24T06:15:01;100790;;;9.1;81
61571;BME280;47463;49.884;10.010;2023-04-24T06:20:01;100790;;;9.3;80
61571;BME280;47463;49.884;10.010;2023-04-24T06:25:01;100790;;;9.5;79
61571;BME280;47463;49.884;10.010;2023-04-24T06:30:01;100800;;;9.8;78
61571;BME280;47463;49.884;10.010;2023-04-24T06:35:01;100800;;;10;78
61571;BME280;47463;49.884;10.010;2023-04-24T06:40:01;100820;;;9.9;76
61571;BME280;47463;49.884;10.010;2023-04-24T06:45:01;100820;;;10;75
61571;BME280;47463;49.884;10.010;2023-04-24T06:50:01;100830;;;10;75
61571;BME280;47463;49.884;10.010;2023-04-24T06:55:01;100820;;;10.1;73
61571;BME280;47463;49.884;10.010;2023-04-24T07:00:01;100820;;;10.1;72
61571;BME280;47463;49.884;10.010;2023-04-24T07:05:01;100820;;;10.2;72
61571;BME280;47463;49.884;10.010;2023-04-24T07:10:01;100830;;;10.2;72
61571;BME280;47463;49.884;10.010;2023-04-24T07:15:01;100840;;;10.4;72
61571;BME280;47463;49.884;10.010;2023-04-24T07:20:01;100840;;;10.7;71
61571;BME280;47463;49.884;10.010;2023-04-24T07:25:01;100840;;;10.8;71
61571;BME280;47463;49.884;10.010;2023-04-24T07:30:01;100840;;;10.7;69
61571;BME280;47463;49.884;10.010;2023-04-24T07:35:01;100840;;;10.8;68
61571;BME280;47463;49.884;10.010;2023-04-24T07:40:01;100850;;;10.9;68
61571;BME280;47463;49.884;10.010;2023-04-24T07:45:01;100850;;;10.7;68
61571;BME280;47463;49.884;10.010;2023-04-24T07:50:01;100870;;;10.4;67
61571;BME280;47463;49.884;10.010;2023-04-24T07:55:01;100850;;;10.2;67
61571;BME280;47463;49.884;10.010;2023-04-24T08:00:01;100870;;;10.2;68
61571;BME280;47463;49.884;10.010;2023-04-24T08:05:01;100870;;;10.2;68
61571;BME280;47463;49.884;10.010;2023-04-24T08:10:01;100870;;;10.1;69
61571;BME280;47463;49.884;10.010;2023-04-24T08:15:01;100880;;;10.2;69
61571;BME280;47463;49.884;10.010;2023-04-24T08:20:01;100880;;;10.2;69
61571;BME280;47463;49.884;10.010;2023-04-24T08:25:01;100890;;;10.3;69
61571;BME280;47463;49.884;10.010;2023-04-24T08:30:01;100890;;;10.3;68
61571;BME280;47463;49.884;10.010;2023-04-24T08:35:01;100890;;;10.4;69
61571;BME280;47463;49.884;10.010;2023-04-24T08:40:01;100890;;;10.1;69
61571;BME280;47463;49.884;10.010;2023-04-24T08:45:01;100890;;;10.2;68
61571;BME280;47463;49.884;10.010;2023-04-24T08:50:02;100900;;;10.3;66
61571;BME280;47463;49.884;10.010;2023-04-24T08:55:01;100910;;;10.2;68
61571;BME280;47463;49.884;10.010;2023-04-24T09:00:01;100910;;;10.6;69
61571;BME280;47463;49.884;10.010;2023-04-24T09:05:01;100890;;;10.4;69
61571;BME280;47463;49.884;10.010;2023-04-24T09:10:01;100900;;;10.5;70
61571;BME280;47463;49.884;10.010;2023-04-24T09:15:01;100890;;;10.8;70
61571;BME280;47463;49.884;10.010;2023-04-24T09:20:01;100890;;;11;69
61571;BME280;47463;49.884;10.010;2023-04-24T09:25:02;100900;;;11;68
61571;BME280;47463;49.884;10.010;2023-04-24T09:30:01;100910;;;11.3;68
61571;BME280;47463;49.884;10.010;2023-04-24T09:35:05;100900;;;11.4;67
61571;BME280;47463;49.884;10.010;2023-04-24T09:40:17;100910;;;11.3;66
61571;BME280;47463;49.884;10.010;2023-04-24T09:45:01;100910;;;11.4;67
61571;BME280;47463;49.884;10.010;2023-04-24T09:50:01;100900;;;11.5;65
61571;BME280;47463;49.884;10.010;2023-04-24T09:55:01;100920;;;12;64
61571;BME280;47463;49.884;10.010;2023-04-24T10:00:01;100910;;;12;61
61571;BME280;47463;49.884;10.010;2023-04-24T10:05:01;100910;;;11.6;61
61571;BME280;47463;49.884;10.010;2023-04-24T10:10:01;100920;;;11.4;62
61571;BME280;47463;49.884;10.010;2023-04-24T10:15:01;100920;;;11.6;63
61571;BME280;47463;49.884;10.010;2023-04-24T10:20:01;100920;;;11.4;62
61571;BME280;47463;49.884;10.010;2023-04-24T10:25:01;100930;;;11.5;63
61571;BME280;47463;49.884;10.010;2023-04-24T10:30:01;100950;;;11.5;61
61571;BME280;47463;49.884;10.010;2023-04-24T10:35:01;100960;;;11.5;61
61571;BME280;47463;49.884;10.010;2023-04-24T10:40:01;100940;;;11.2;60
61571;BME280;47463;49.884;10.010;2023-04-24T10:45:04;100950;;;11.1;60
61571;BME280;47463;49.884;10.010;2023-04-24T10:50:01;100960;;;11;62
61571;BME280;47463;49.884;10.010;2023-04-24T10:55:01;100970;;;11;62
61571;BME280;47463;49.884;10.010;2023-04-24T11:00:18;100990;;;10.8;62
61571;BME280;47463;49.884;10.010;2023-04-24T11:05:02;101000;;;10.7;64
61571;BME280;47463;49.884;10.010;2023-04-24T11:10:01;100990;;;11;62
61571;BME280;47463;49.884;10.010;2023-04-24T11:15:01;100990;;;11.7;61
61571;BME280;47463;49.884;10.010;2023-04-24T11:20:01;100990;;;11.5;60
61571;BME280;47463;49.884;10.010;2023-04-24T11:25:01;100990;;;11.4;60
61571;BME280;47463;49.884;10.010;2023-04-24T11:30:02;100990;;;11.1;60
61571;BME280;47463;49.884;10.010;2023-04-24T11:35:01;100970;;;11.5;60
61571;BME280;47463;49.884;10.010;2023-04-24T11:40:01;101010;;;11.2;60
61571;BME280;47463;49.884;10.010;2023-04-24T11:45:01;101010;;;11.3;60
61571;BME280;47463;49.884;10.010;2023-04-24T11:50:01;101020;;;11.2;63
61571;BME280;47463;49.884;10.010;2023-04-24T11:55:01;101010;;;10.8;64
61571;BME280;47463;49.884;10.010;2023-04-24T12:00:01;101020;;;11;64
61571;BME280;47463;49.884;10.010;2023-04-24T12:05:01;101030;;;11.2;62
61571;BME280;47463;49.884;10.010;2023-04-24T12:10:01;101020;;;11.5;62
61571;BME280;47463;49.884;10.010;2023-04-24T12:15:01;101020;;;11.5;61
61571;BME280;47463;49.884;10.010;2023-04-24T12:20:02;101010;;;11.9;62
61571;BME280;47463;49.884;10.010;2023-04-24T12:25:02;101030;;;12.1;61
61571;BME280;47463;49.884;10.010;2023-04-24T12:30:03;101020;;;12;62
61571;BME280;47463;49.884;10.010;2023-04-24T12:35:01;101020;;;12.2;60
61571;BME280;47463;49.884;10.010;2023-04-24T12:40:01;101010;;;12;61
61571;BME280;47463;49.884;10.010;2023-04-24T12:45:01;101010;;;12.1;61
61571;BME280;47463;49.884;10.010;2023-04-24T12:50:01;101020;;;11.8;60
61571;BME280;47463;49.884;10.010;2023-04-24T12:55:01;101020;;;11.7;60
61571;BME280;47463;49.884;10.010;2023-04-24T13:00:01;101010;;;11.2;61
61571;BME280;47463;49.884;10.010;2023-04-24T13:05:01;101010;;;11.2;62
61571;BME280;47463;49.884;10.010;2023-04-24T13:10:01;101040;;;10.8;64
61571;BME280;47463;49.884;10.010;2023-04-24T13:15:01;101050;;;10.2;68
61571;BME280;47463;49.884;10.010;2023-04-24T13:20:01;101050;;;9.3;73
61571;BME280;47463;49.884;10.010;2023-04-24T13:25:01;101050;;;8.9;76
61571;BME280;47463;49.884;10.010;2023-04-24T13:30:01;101060;;;8.9;78
61571;BME280;47463;49.884;10.010;2023-04-24T13:35:01;101060;;;9;80
61571;BME280;47463;49.884;10.010;2023-04-24T13:40:01;101050;;;9.1;80
61571;BME280;47463;49.884;10.010;2023-04-24T13:45:01;101050;;;9.4;79
61571;BME280;47463;49.884;10.010;2023-04-24T13:50:01;101050;;;9.8;78
61571;BME280;47463;49.884;10.010;2023-04-24T13:55:01;101050;;;9.9;76
61571;BME280;47463;49.884;10.010;2023-04-24T14:00:01;101050;;;9.8;76
61571;BME280;47463;49.884;10.010;2023-04-24T14:05:01;101050;;;9.6;76
61571;BME280;47463;49.884;10.010;2023-04-24T14:10:01;101070;;;9.4;76
61571;BME280;47463;49.884;10.010;2023-04-24T14:15:01;101080;;;9.1;77
61571;BME280;47463;49.884;10.010;2023-04-24T14:20:01;101080;;;9.1;75
61571;BME280;47463;49.884;10.010;2023-04-24T14:25:01;101080;;;9.3;75
61571;BME280;47463;49.884;10.010;2023-04-24T14:30:01;101080;;;9.6;73
61571;BME280;47463;49.884;10.010;2023-04-24T14:35:01;101090;;;9.8;71
61571;BME280;47463;49.884;10.010;2023-04-24T14:40:01;101080;;;9.9;69
61571;BME280;47463;49.884;10.010;2023-04-24T14:45:01;101080;;;9.9;68
61571;BME280;47463;49.884;10.010;2023-04-24T14:50:01;101090;;;9.9;69
61571;BME280;47463;49.884;10.010;2023-04-24T14:55:01;101090;;;9.3;72
61571;BME280;47463;49.884;10.010;2023-04-24T15:00:01;101100;;;9.1;73
61571;BME280;47463;49.884;10.010;2023-04-24T15:05:01;101100;;;9.1;73
61571;BME280;47463;49.884;10.010;2023-04-24T15:10:01;101110;;;9.1;73
61571;BME280;47463;49.884;10.010;2023-04-24T15:15:01;101100;;;9.1;73
61571;BME280;47463;49.884;10.010;2023-04-24T15:20:01;101090;;;9.7;72
61571;BME280;47463;49.884;10.010;2023-04-24T15:25:01;101100;;;10.5;70
61571;BME280;47463;49.884;10.010;2023-04-24T15:30:01;101100;;;10.8;68
61571;BME280;47463;49.884;10.010;2023-04-24T15:35:01;101090;;;10.5;69
61571;BME280;47463;49.884;10.010;2023-04-24T15:40:01;101090;;;10.3;69
61571;BME280;47463;49.884;10.010;2023-04-24T15:45:01;101090;;;10.2;69
61571;BME280;47463;49.884;10.010;2023-04-24T15:50:01;101110;;;10.2;69
61571;BME280;47463;49.884;10.010;2023-04-24T15:55:02;101120;;;10;70
61571;BME280;47463;49.884;10.010;2023-04-24T16:00:01;101120;;;10.1;70
61571;BME280;47463;49.884;10.010;2023-04-24T16:05:01;101120;;;10.2;70
61571;BME280;47463;49.884;10.010;2023-04-24T16:10:01;101110;;;10.7;68
61571;BME280;47463;49.884;10.010;2023-04-24T16:15:01;101110;;;11.1;67
61571;BME280;47463;49.884;10.010;2023-04-24T16:20:01;101110;;;10.9;66
61571;BME280;47463;49.884;10.010;2023-04-24T16:25:01;101100;;;10.6;67
61571;BME280;47463;49.884;10.010;2023-04-24T16:30:01;101120;;;10.5;67
61571;BME280;47463;49.884;10.010;2023-04-24T16:35:01;101110;;;10.7;66
61571;BME280;47463;49.884;10.010;2023-04-24T16:40:01;101120;;;11.2;65
61571;BME280;47463;49.884;10.010;2023-04-24T16:45:01;101120;;;11.2;64
61571;BME280;47463;49.884;10.010;2023-04-24T16:50:01;101120;;;10.9;64
61571;BME280;47463;49.884;10.010;2023-04-24T16:55:01;101120;;;10.7;65
61571;BME280;47463;49.884;10.010;2023-04-24T17:00:01;101120;;;10.7;65
61571;BME280;47463;49.884;10.010;2023-04-24T17:05:01;101120;;;10.6;65
61571;BME280;47463;49.884;10.010;2023-04-24T17:10:01;101120;;;10.7;65
61571;BME280;47463;49.884;10.010;2023-04-24T17:15:01;101120;;;11;64
61571;BME280;47463;49.884;10.010;2023-04-24T17:20:01;101120;;;10.9;64
61571;BME280;47463;49.884;10.010;2023-04-24T17:25:01;101120;;;10.6;65
61571;BME280;47463;49.884;10.010;2023-04-24T17:30:01;101130;;;10.6;65
61571;BME280;47463;49.884;10.010;2023-04-24T17:35:01;101130;;;10.4;65
61571;BME280;47463;49.884;10.010;2023-04-24T17:40:01;101140;;;10.4;66
61571;BME280;47463;49.884;10.010;2023-04-24T17:45:01;101140;;;10.3;65
61571;BME280;47463;49.884;10.010;2023-04-24T17:50:01;101120;;;10.3;65
61571;BME280;47463;49.884;10.010;2023-04-24T17:55:01;101130;;;10.2;65
61571;BME280;47463;49.884;10.010;2023-04-24T18:00:01;101130;;;10.2;64
61571;BME280;47463;49.884;10.010;2023-04-24T18:05:01;101130;;;10.2;64
61571;BME280;47463;49.884;10.010;2023-04-24T18:10:01;101130;;;10;64
61571;BME280;47463;49.884;10.010;2023-04-24T18:15:01;101140;;;9.5;67
61571;BME280;47463;49.884;10.010;2023-04-24T18:20:01;101150;;;9.4;69
61571;BME280;47463;49.884;10.010;2023-04-24T18:25:01;101160;;;9.4;69
61571;BME280;47463;49.884;10.010;2023-04-24T18:30:01;101160;;;9.2;70
61571;BME280;47463;49.884;10.010;2023-04-24T18:35:01;101170;;;9.2;69
61571;BME280;47463;49.884;10.010;2023-04-24T18:40:01;101170;;;9;70
61571;BME280;47463;49.884;10.010;2023-04-24T18:45:01;101180;;;9;70
61571;BME280;47463;49.884;10.010;2023-04-24T18:50:01;101190;;;8.7;72
61571;BME280;47463;49.884;10.010;2023-04-24T18:55:01;101190;;;8.6;72
61571;BME280;47463;49.884;10.010;2023-04-24T19:00:01;101200;;;8.7;72
61571;BME280;47463;49.884;10.010;2023-04-24T19:05:01;101210;;;8.6;73
61571;BME280;47463;49.884;10.010;2023-04-24T19:10:01;101230;;;8.6;74
61571;BME280;47463;49.884;10.010;2023-04-24T19:15:01;101220;;;8.6;74
61571;BME280;47463;49.884;10.010;2023-04-24T19:20:01;101220;;;8.6;74
61571;BME280;47463;49.884;10.010;2023-04-24T19:25:01;101220;;;8.6;75
61571;BME280;47463;49.884;10.010;2023-04-24T19:30:01;101230;;;8.6;75
61571;BME280;47463;49.884;10.010;2023-04-24T19:35:01;101230;;;8.6;75
61571;BME280;47463;49.884;10.010;2023-04-24T19:40:01;101230;;;8.4;75
61571;BME280;47463;49.884;10.010;2023-04-24T19:45:01;101230;;;8.4;76
61571;BME280;47463;49.884;10.010;2023-04-24T19:50:01;101230;;;8.5;75
61571;BME280;47463;49.884;10.010;2023-04-24T19:55:01;101240;;;8.5;75
61571;BME280;47463;49.884;10.010;2023-04-24T20:00:01;101230;;;8.5;75
61571;BME280;47463;49.884;10.010;2023-04-24T20:05:01;101230;;;8.5;75
61571;BME280;47463;49.884;10.010;2023-04-24T20:10:01;101230;;;8.6;75
61571;BME280;47463;49.884;10.010;2023-04-24T20:15:01;101230;;;8.4;76
61571;BME280;47463;49.884;10.010;2023-04-24T20:20:01;101230;;;8.4;76
61571;BME280;47463;49.884;10.010;2023-04-24T20:25:01;101240;;;8.5;76
61571;BME280;47463;49.884;10.010;2023-04-24T20:30:01;101240;;;8.5;76
61571;BME280;47463;49.884;10.010;2023-04-24T20:35:01;101240;;;8.6;75
61571;BME280;47463;49.884;10.010;2023-04-24T20:40:01;101230;;;8.6;75
61571;BME280;47463;49.884;10.010;2023-04-24T20:45:01;101240;;;8.5;75
61571;BME280;47463;49.884;10.010;2023-04-24T20:50:01;101240;;;8.3;77
61571;BME280;47463;49.884;10.010;2023-04-24T20:55:01;101250;;;8.1;77
61571;BME280;47463;49.884;10.010;2023-04-24T21:00:01;101240;;;7.8;79
61571;BME280;47463;49.884;10.010;2023-04-24T21:05:01;101240;;;7.6;81
61571;BME280;47463;49.884;10.010;2023-04-24T21:10:01;101240;;;7.5;82
61571;BME280;47463;49.884;10.010;2023-04-24T21:15:01;101230;;;7.4;82
61571;BME280;47463;49.884;10.010;2023-04-24T21:20:01;101220;;;7.3;83
61571;BME280;47463;49.884;10.010;2023-04-24T21:25:01;101220;;;7.2;82
61571;BME280;47463;49.884;10.010;2023-04-24T21:30:01;101220;;;7.1;83
61571;BME280;47463;49.884;10.010;2023-04-24T21:35:01;101220;;;7.1;83
61571;BME280;47463;49.884;10.010;2023-04-24T21:40:01;101220;;;7.2;83
61571;BME280;47463;49.884;10.010;2023-04-24T21:45:01;101210;;;7.3;84
61571;BME280;47463;49.884;10.010;2023-04-24T21:50:01;101210;;;7.3;84
61571;BME280;47463;49.884;10.010;2023-04-24T21:55:01;101210;;;7.4;85
61571;BME280;47463;49.884;10.010;2023-04-24T22:00:01;101210;;;7.5;84
61571;BME280;47463;49.884;10.010;2023-04-24T22:05:01;101200;;;7.5;85
61571;BME280;47463;49.884;10.010;2023-04-24T22:10:01;101210;;;7.5;85
61571;BME280;47463;49.884;10.010;2023-04-24T22:15:01;101210;;;7.4;85
61571;BME280;47463;49.884;10.010;2023-04-24T22:20:01;101210;;;7.3;85
61571;BME280;47463;49.884;10.010;2023-04-24T22:25:01;101210;;;7.2;85
61571;BME280;47463;49.884;10.010;2023-04-24T22:30:01;101200;;;7.2;85
61571;BME280;47463;49.884;10.010;2023-04-24T22:35:01;101190;;;7;86
61571;BME280;47463;49.884;10.010;2023-04-24T22:40:01;101200;;;6.9;86
61571;BME280;47463;49.884;10.010;2023-04-24T22:45:01;101190;;;6.9;87
61571;BME280;47463;49.884;10.010;2023-04-24T22:50:01;101200;;;6.9;87
61571;BME280;47463;49.884;10.010;2023-04-24T22:55:01;101190;;;6.8;87
61571;BME280;47463;49.884;10.010;2023-04-24T23:00:01;101180;;;6.7;88
61571;BME280;47463;49.884;10.010;2023-04-24T23:05:01;101180;;;6.8;88
61571;BME280;47463;49.884;10.010;2023-04-24T23:10:01;101190;;;6.9;88
61571;BME280;47463;49.884;10.010;2023-04-24T23:15:01;101190;;;7.1;88
61571;BME280;47463;49.884;10.010;2023-04-24T23:20:01;101190;;;7.1;88
61571;BME280;47463;49.884;10.010;2023-04-24T23:25:01;101190;;;7.2;87
61571;BME280;47463;49.884;10.010;2023-04-24T23:30:01;101180;;;7.2;87
61571;BME280;47463;49.884;10.010;2023-04-24T23:35:01;101170;;;7.2;87
61571;BME280;47463;49.884;10.010;2023-04-24T23:40:01;101160;;;7.2;87
61571;BME280;47463;49.884;10.010;2023-04-24T23:45:01;101160;;;7.3;87
61571;BME280;47463;49.884;10.010;2023-04-24T23:50:01;101160;;;7.3;86
61571;BME280;47463;49.884;10.010;2023-04-24T23:55:01;101160;;;7.3;86
